Redfield, Arkansas
Current Conditions -  °F | °C
As of 7:53 PM on Friday 24 Oct 2014 (Local Time) from KLIT Reporting Station
Broken Clouds Broken Clouds  
Wind Chill: 66°   Ceiling: 25000
Heat Index: 66°   Visibility: 10mi
Dew Point: 55°   Wind: 3mph
Humidity: 68%   Direction: 200°SSW
Pressure: 30.1"   Gusts: NA
Location:  34.45°N, 92.18°W
Report Text: KLIT 250053Z 20003KT 10SM BKN250 19/13 A3010 RMK AO2 SLP194 T01890128
Loading
Personal Weather Stations






























Interactive Weather Map
Tropical Storm Tracking
New forecast layout! Learn more

10-Day Weather Forecast

Advertisements
Track Severe Weather on mobile